createdAt,value
2018-06-20T00:01:20.568Z,101217.94
2018-06-20T00:03:48.487Z,101217.41
2018-06-20T00:06:16.303Z,101214.06
2018-06-20T00:08:50.722Z,101215.45
2018-06-20T00:11:20.291Z,101214.08
2018-06-20T00:13:48.140Z,101216.56
2018-06-20T00:16:16.021Z,101219.33
2018-06-20T00:18:43.989Z,101214.61
2018-06-20T00:21:12.041Z,101221.84
2018-06-20T00:23:39.924Z,101217.69
2018-06-20T00:26:07.816Z,101219.60
2018-06-20T00:28:35.698Z,101219.31
2018-06-20T00:31:03.616Z,101218.77
2018-06-20T00:33:31.556Z,101216.83
2018-06-20T00:35:59.479Z,101208.80
2018-06-20T00:38:27.299Z,101207.98
2018-06-20T00:40:55.157Z,101207.12
2018-06-20T00:43:23.021Z,101209.63
2018-06-20T00:45:50.817Z,101203.50
2018-06-20T00:48:18.685Z,101211.28
2018-06-20T00:50:46.510Z,101202.40
2018-06-20T00:53:14.408Z,101203.77
2018-06-20T00:55:59.590Z,101205.16
2018-06-20T00:58:27.461Z,101200.72
2018-06-20T01:00:55.366Z,101198.76
2018-06-20T01:03:23.249Z,101204.05
2018-06-20T01:05:51.166Z,101205.44
2018-06-20T01:08:19.090Z,101197.39
2018-06-20T01:10:46.940Z,101201.81
2018-06-20T01:13:14.826Z,101204.88
2018-06-20T01:15:42.726Z,101199.87
2018-06-20T01:18:10.609Z,101200.73
2018-06-20T01:20:38.641Z,101196.31
2018-06-20T01:23:06.476Z,101197.95
2018-06-20T01:25:34.349Z,101192.40
2018-06-20T01:28:02.236Z,101185.75
2018-06-20T01:30:30.141Z,101194.36
2018-06-20T01:32:57.955Z,101191.57
2018-06-20T01:35:25.873Z,101188.51
2018-06-20T01:37:53.797Z,101189.35
2018-06-20T01:40:21.735Z,101185.73
2018-06-20T01:42:49.549Z,101182.41
2018-06-20T01:45:17.489Z,101176.02
2018-06-20T01:47:45.309Z,101182.41
2018-06-20T01:50:13.244Z,101183.28
2018-06-20T01:52:41.080Z,101172.72
2018-06-20T01:55:08.949Z,101173.28
2018-06-20T01:57:36.868Z,101174.11
2018-06-20T02:00:05.297Z,101173.56
2018-06-20T02:02:33.337Z,101181.05
2018-06-20T02:05:01.221Z,101181.88
2018-06-20T02:07:29.125Z,101189.09
2018-06-20T02:09:56.992Z,101185.23
2018-06-20T02:12:24.913Z,101187.44
2018-06-20T02:14:52.773Z,101181.60
2018-06-20T02:17:20.733Z,101181.07
2018-06-20T02:19:48.654Z,101184.67
2018-06-20T02:22:16.481Z,101175.52
2018-06-20T02:24:44.346Z,101178.00
2018-06-20T02:27:12.249Z,101177.46
2018-06-20T02:29:40.113Z,101183.28
2018-06-20T02:32:07.956Z,101173.03
2018-06-20T02:34:35.827Z,101171.63
2018-06-20T02:37:03.765Z,101173.02
2018-06-20T02:39:31.609Z,101172.19
2018-06-20T02:41:59.456Z,101176.92
2018-06-20T02:44:27.393Z,101181.33
2018-06-20T02:46:55.309Z,101179.11
2018-06-20T02:49:23.153Z,101170.24
2018-06-20T02:51:51.001Z,101173.58
2018-06-20T02:54:18.981Z,101172.77
2018-06-20T02:56:46.877Z,101169.70
2018-06-20T02:59:14.694Z,101169.95
2018-06-20T03:01:42.568Z,101164.11
2018-06-20T03:04:10.457Z,101159.96
2018-06-20T03:06:38.256Z,101159.41
2018-06-20T03:09:43.229Z,101158.00
2018-06-20T03:12:11.117Z,101161.61
2018-06-20T03:14:38.957Z,101155.79
2018-06-20T03:17:06.804Z,101161.05
2018-06-20T03:19:34.637Z,101165.75
2018-06-20T03:22:02.541Z,101158.83
2018-06-20T03:24:30.400Z,101161.04
2018-06-20T03:26:58.281Z,101158.52
2018-06-20T03:29:26.191Z,101156.02
2018-06-20T03:31:54.065Z,101164.04
2018-06-20T03:34:22.005Z,101161.83
2018-06-20T03:36:49.840Z,101161.58
2018-06-20T03:39:17.693Z,101164.62
2018-06-20T03:41:45.569Z,101159.89
2018-06-20T03:44:13.462Z,101164.88
2018-06-20T03:46:41.399Z,101165.44
2018-06-20T03:49:09.412Z,101166.83
2018-06-20T03:51:37.291Z,101174.06
2018-06-20T03:54:05.303Z,101170.44
2018-06-20T03:56:33.196Z,101174.05
2018-06-20T03:59:01.069Z,101164.92
2018-06-20T04:01:28.897Z,101166.31
2018-06-20T04:03:56.803Z,101167.12
2018-06-20T04:06:24.696Z,101166.05
2018-06-20T04:08:52.509Z,101164.65
2018-06-20T04:11:20.365Z,101166.03
2018-06-20T04:13:48.191Z,101166.05
2018-06-20T04:16:16.134Z,101169.37
2018-06-20T04:18:44.565Z,101167.71
2018-06-20T04:21:13.697Z,101168.84
2018-06-20T04:23:41.609Z,101169.70
2018-06-20T04:26:10.484Z,101167.75
2018-06-20T04:28:38.557Z,101167.49
2018-06-20T04:31:07.237Z,101157.50
2018-06-20T04:33:36.190Z,101163.88
2018-06-20T04:36:04.058Z,101158.87
2018-06-20T04:38:31.955Z,101154.16
2018-06-20T04:41:00.199Z,101151.11
2018-06-20T04:43:28.018Z,101146.67
2018-06-20T04:45:56.217Z,101152.49
2018-06-20T04:48:24.331Z,101153.02
2018-06-20T04:50:52.342Z,101147.45
2018-06-20T04:53:20.217Z,101147.42
2018-06-20T04:55:48.137Z,101141.83
2018-06-20T04:58:16.417Z,101144.35
2018-06-20T05:00:44.832Z,101143.75
2018-06-20T05:03:13.013Z,101142.27
2018-06-20T05:05:42.325Z,101139.98
2018-06-20T05:08:10.419Z,101137.55
2018-06-20T05:10:38.489Z,101138.16
2018-06-20T05:13:06.585Z,101140.77
2018-06-20T05:15:34.520Z,101140.98
2018-06-20T05:18:02.748Z,101139.59
2018-06-20T05:20:30.628Z,101138.48
2018-06-20T05:22:58.537Z,101135.45
2018-06-20T05:25:26.449Z,101137.30
2018-06-20T05:27:54.308Z,101133.05
2018-06-20T05:30:22.172Z,101137.77
2018-06-20T05:32:50.029Z,101133.48
2018-06-20T05:35:17.861Z,101134.25
2018-06-20T05:37:45.746Z,101139.45
2018-06-20T05:40:13.654Z,101133.52
2018-06-20T05:42:41.564Z,101131.91
2018-06-20T05:45:09.400Z,101131.82
2018-06-20T05:47:37.321Z,101131.16
2018-06-20T05:50:05.226Z,101130.94
2018-06-20T05:52:34.081Z,101123.23
2018-06-20T05:55:02.133Z,101128.94
2018-06-20T05:57:29.969Z,101132.18
2018-06-20T05:59:57.861Z,101131.61
2018-06-20T06:02:25.665Z,101137.95
2018-06-20T06:04:53.479Z,101128.37
2018-06-20T06:07:21.305Z,101128.63
2018-06-20T06:09:49.186Z,101129.48
2018-06-20T06:12:16.999Z,101130.81
2018-06-20T06:14:44.935Z,101123.25
2018-06-20T06:17:12.923Z,101128.35
2018-06-20T06:19:40.783Z,101128.53
2018-06-20T06:22:08.629Z,101123.00
2018-06-20T06:24:36.574Z,101120.11
2018-06-20T06:27:04.553Z,101120.25
2018-06-20T06:29:32.461Z,101115.80
2018-06-20T06:32:00.378Z,101115.09
2018-06-20T06:34:28.216Z,101117.28
2018-06-20T06:36:56.209Z,101120.16
2018-06-20T06:39:24.111Z,101114.43
2018-06-20T06:41:53.366Z,101106.56
2018-06-20T06:44:24.852Z,101106.66
2018-06-20T06:46:53.070Z,101108.09
2018-06-20T06:49:20.948Z,101105.38
2018-06-20T06:51:48.866Z,101099.77
2018-06-20T06:54:17.469Z,101103.41
2018-06-20T06:56:45.408Z,101099.52
2018-06-20T06:59:13.357Z,101102.77
2018-06-20T07:01:41.186Z,101098.72
2018-06-20T07:04:09.029Z,101094.84
2018-06-20T07:06:36.981Z,101094.27
2018-06-20T07:09:07.447Z,101093.51
2018-06-20T07:11:35.362Z,101087.83
2018-06-20T07:14:03.236Z,101091.36
2018-06-20T07:16:31.208Z,101084.67
2018-06-20T07:18:59.100Z,101092.09
2018-06-20T07:21:27.265Z,101083.28
2018-06-20T07:23:55.111Z,101092.42
2018-06-20T07:26:23.009Z,101088.47
2018-06-20T07:28:50.900Z,101083.55
2018-06-20T07:31:18.769Z,101086.91
2018-06-20T07:33:46.547Z,101079.63
2018-06-20T07:36:14.482Z,101079.81
2018-06-20T07:38:42.250Z,101083.74
2018-06-20T07:41:10.200Z,101075.25
2018-06-20T07:43:38.045Z,101073.30
2018-06-20T07:46:06.164Z,101077.22
2018-06-20T07:48:33.977Z,101073.58
2018-06-20T07:51:01.909Z,101067.87
2018-06-20T07:53:29.769Z,101066.42
2018-06-20T07:55:57.730Z,101057.36
2018-06-20T07:58:31.359Z,101059.01
2018-06-20T08:01:04.952Z,101064.06
2018-06-20T08:03:38.413Z,101060.91
2018-06-20T08:06:12.081Z,101063.89
2018-06-20T08:08:45.646Z,101057.46
2018-06-20T08:11:19.237Z,101056.53
2018-06-20T08:13:52.660Z,101057.94
2018-06-20T08:16:26.198Z,101062.80
2018-06-20T08:18:59.671Z,101062.20
2018-06-20T08:21:27.565Z,101058.71
2018-06-20T08:23:55.405Z,101054.64
2018-06-20T08:26:23.287Z,101051.42
2018-06-20T08:28:54.562Z,101057.46
2018-06-20T08:31:22.489Z,101055.14
2018-06-20T08:33:50.356Z,101052.50
2018-06-20T08:36:18.248Z,101051.41
2018-06-20T08:38:46.123Z,101052.39
2018-06-20T08:41:13.961Z,101049.94
2018-06-20T08:43:41.888Z,101050.41
2018-06-20T08:46:09.768Z,101052.88
2018-06-20T08:48:37.644Z,101046.45
2018-06-20T08:51:05.694Z,101047.94
2018-06-20T08:53:33.590Z,101050.36
2018-06-20T08:56:01.498Z,101041.38
2018-06-20T08:58:29.449Z,101036.84
2018-06-20T09:01:00.752Z,101042.30
2018-06-20T09:03:28.937Z,101037.68
2018-06-20T09:06:02.609Z,101037.30
2018-06-20T09:08:36.262Z,101033.83
2018-06-20T09:11:13.097Z,101031.95
2018-06-20T09:13:46.697Z,101023.48
2018-06-20T09:16:20.089Z,101021.75
2018-06-20T09:18:53.747Z,101024.34
2018-06-20T09:21:21.674Z,101020.81
2018-06-20T09:23:49.512Z,101017.37
2018-06-20T09:26:17.549Z,101017.03
2018-06-20T09:28:45.481Z,101014.13
2018-06-20T09:31:13.341Z,101012.91
2018-06-20T09:33:41.256Z,101012.66
2018-06-20T09:36:09.801Z,101011.56
2018-06-20T09:38:37.668Z,101013.80
2018-06-20T09:41:05.465Z,101010.75
2018-06-20T09:43:33.353Z,101005.73
2018-06-20T09:46:01.233Z,101012.48
2018-06-20T09:48:29.195Z,101009.98
2018-06-20T09:50:58.310Z,101008.92
2018-06-20T09:53:26.870Z,101006.91
2018-06-20T09:55:54.761Z,100996.78
2018-06-20T09:58:22.704Z,100990.49
2018-06-20T10:00:56.305Z,100984.28
2018-06-20T10:03:29.766Z,100980.91
2018-06-20T10:06:03.507Z,100978.91
2018-06-20T10:08:37.037Z,100969.83
2018-06-20T10:11:10.850Z,100965.54
2018-06-20T10:13:44.342Z,100967.19
2018-06-20T10:16:12.321Z,100960.86
2018-06-20T10:18:40.428Z,100964.27
2018-06-20T10:21:08.393Z,100962.03
2018-06-20T10:23:36.261Z,100960.92
2018-06-20T10:26:04.162Z,100950.89
2018-06-20T10:28:32.060Z,100954.18
2018-06-20T10:30:59.861Z,100950.94
2018-06-20T10:33:27.852Z,100954.53
2018-06-20T10:35:55.689Z,100943.78
2018-06-20T10:38:23.513Z,100942.66
2018-06-20T10:40:51.364Z,100942.30
2018-06-20T10:43:19.201Z,100933.14
2018-06-20T10:45:52.854Z,100930.27
2018-06-20T10:48:20.661Z,100930.06
2018-06-20T10:50:48.705Z,100928.52
2018-06-20T10:53:16.573Z,100927.84
2018-06-20T10:55:44.476Z,100922.38
2018-06-20T10:58:18.104Z,100916.75
2018-06-20T11:00:51.841Z,100914.64
2018-06-20T11:03:25.302Z,100906.36
2018-06-20T11:05:58.809Z,100906.95
2018-06-20T11:08:32.305Z,100904.44
2018-06-20T11:11:05.828Z,100900.28
2018-06-20T11:13:33.712Z,100895.77
2018-06-20T11:16:01.621Z,100890.68
2018-06-20T11:18:30.404Z,100888.53
2018-06-20T11:20:59.041Z,100886.45
2018-06-20T11:23:27.322Z,100880.80
2018-06-20T11:25:55.512Z,100882.12
2018-06-20T11:28:23.321Z,100876.35
2018-06-20T11:30:51.188Z,100872.12
2018-06-20T11:33:19.097Z,100869.63
2018-06-20T11:35:46.970Z,100860.87
2018-06-20T11:38:14.854Z,100857.28
2018-06-20T11:40:42.693Z,100851.28
2018-06-20T11:43:10.604Z,100854.21
2018-06-20T11:45:44.365Z,100846.32
2018-06-20T11:48:12.204Z,100841.39
2018-06-20T11:50:40.074Z,100846.83
2018-06-20T11:53:09.125Z,100843.86
2018-06-20T11:55:39.436Z,100839.12
2018-06-20T11:58:13.222Z,100834.30
2018-06-20T12:00:46.937Z,100823.93
2018-06-20T12:03:20.580Z,100823.59
2018-06-20T12:06:53.184Z,100818.71
2018-06-20T12:09:26.735Z,100815.45
2018-06-20T12:12:00.253Z,100815.52
2018-06-20T12:14:33.740Z,100812.48
2018-06-20T12:17:01.180Z,100818.12
2018-06-20T12:19:34.676Z,100814.76
2018-06-20T12:22:08.169Z,100805.64
2018-06-20T12:24:41.612Z,100802.89
2018-06-20T12:27:15.133Z,100799.05
2018-06-20T12:29:48.581Z,100799.44
2018-06-20T12:32:22.074Z,100795.00
2018-06-20T12:34:55.757Z,100790.84
2018-06-20T12:37:29.237Z,100784.55
2018-06-20T12:39:59.277Z,100780.98
2018-06-20T12:42:32.851Z,100780.68
2018-06-20T12:45:09.468Z,100780.13
2018-06-20T12:47:43.039Z,100774.79
2018-06-20T12:50:42.072Z,100773.17
2018-06-20T12:53:09.969Z,100765.78
2018-06-20T12:55:37.816Z,100757.11
2018-06-20T12:58:05.713Z,100762.66
2018-06-20T13:00:33.681Z,100761.65
2018-06-20T13:03:01.592Z,100759.75
2018-06-20T13:05:29.509Z,100753.91
2018-06-20T13:07:57.450Z,100751.08
2018-06-20T13:10:25.280Z,100747.09
2018-06-20T13:12:53.168Z,100745.03
2018-06-20T13:15:21.053Z,100742.98
2018-06-20T13:17:48.882Z,100738.64
2018-06-20T13:20:16.812Z,100745.78
2018-06-20T13:22:44.638Z,100741.89
2018-06-20T13:25:12.552Z,100740.91
2018-06-20T13:27:45.473Z,100729.60
2018-06-20T13:30:13.508Z,100729.47
2018-06-20T13:32:47.137Z,100718.23
2018-06-20T13:35:20.677Z,100725.92
2018-06-20T13:37:54.359Z,100715.37
2018-06-20T13:40:27.869Z,100716.85
2018-06-20T13:43:01.655Z,100717.04
2018-06-20T13:45:35.199Z,100719.80
2018-06-20T13:48:08.744Z,100723.00
2018-06-20T13:50:36.632Z,100726.94
2018-06-20T13:53:04.529Z,100729.82
2018-06-20T13:55:32.491Z,100720.08
2018-06-20T13:58:00.357Z,100712.34
2018-06-20T14:00:28.531Z,100715.40
2018-06-20T14:02:56.456Z,100715.59
2018-06-20T14:05:24.422Z,100711.31
2018-06-20T14:07:52.235Z,100715.38
2018-06-20T14:10:20.173Z,100712.75
2018-06-20T14:12:47.998Z,100706.03
2018-06-20T14:15:15.880Z,100699.49
2018-06-20T14:17:43.788Z,100697.66
2018-06-20T14:20:17.540Z,100691.94
2018-06-20T14:22:45.482Z,100691.50
2018-06-20T14:25:14.016Z,100694.45
2018-06-20T14:27:42.045Z,100697.91
2018-06-20T14:30:10.017Z,100689.38
2018-06-20T14:32:43.486Z,100694.19
2018-06-20T14:35:17.255Z,100682.58
2018-06-20T14:37:50.801Z,100681.80
2018-06-20T14:40:28.346Z,100673.24
2018-06-20T14:43:02.150Z,100668.59
2018-06-20T14:45:35.690Z,100670.22
2018-06-20T14:48:03.543Z,100667.27
2018-06-20T14:50:31.448Z,100662.58
2018-06-20T14:52:59.329Z,100662.03
2018-06-20T14:55:27.199Z,100653.39
2018-06-20T14:57:54.997Z,100650.95
2018-06-20T15:00:22.944Z,100651.21
2018-06-20T15:02:50.797Z,100652.97
2018-06-20T15:05:18.772Z,100651.33
2018-06-20T15:07:46.692Z,100648.56
2018-06-20T15:10:14.593Z,100648.04
2018-06-20T15:12:42.409Z,100648.17
2018-06-20T15:15:10.257Z,100640.87
2018-06-20T15:17:38.118Z,100640.19
2018-06-20T15:20:06.095Z,100638.19
2018-06-20T15:22:39.705Z,100645.95
2018-06-20T15:25:07.620Z,100639.15
2018-06-20T15:27:41.229Z,100639.99
2018-06-20T15:30:14.929Z,100624.67
2018-06-20T15:32:48.497Z,100618.19
2018-06-20T15:35:21.979Z,100610.91
2018-06-20T15:37:55.520Z,100617.92
2018-06-20T15:40:23.534Z,100606.77
2018-06-20T15:42:51.413Z,100615.52
2018-06-20T15:45:19.357Z,100616.81
2018-06-20T15:47:47.220Z,100604.64
2018-06-20T15:50:15.145Z,100611.13
2018-06-20T15:52:43.038Z,100605.73
2018-06-20T15:55:11.093Z,100598.97
2018-06-20T15:57:38.996Z,100595.75
2018-06-20T16:00:06.906Z,100593.41
2018-06-20T16:02:34.768Z,100583.88
2018-06-20T16:05:02.629Z,100590.69
2018-06-20T16:07:30.520Z,100591.84
2018-06-20T16:10:00.055Z,100585.10
2018-06-20T16:12:27.845Z,100580.01
2018-06-20T16:14:56.839Z,100579.28
2018-06-20T16:17:24.997Z,100567.89
2018-06-20T16:19:58.513Z,100573.20
2018-06-20T16:22:32.018Z,100572.14
2018-06-20T16:25:05.521Z,100572.98
2018-06-20T16:27:39.125Z,100563.01
2018-06-20T16:30:12.754Z,100567.47
2018-06-20T16:32:40.620Z,100564.49
2018-06-20T16:35:10.057Z,100561.98
2018-06-20T16:37:38.582Z,100563.65
2018-06-20T16:40:06.390Z,100566.23
2018-06-20T16:42:34.285Z,100570.36
2018-06-20T16:45:02.201Z,100564.68
2018-06-20T16:47:30.177Z,100561.75
2018-06-20T16:49:58.066Z,100563.28
2018-06-20T16:52:25.980Z,100555.57
2018-06-20T16:54:53.850Z,100556.00
2018-06-20T16:57:21.676Z,100555.17
2018-06-20T16:59:49.733Z,100552.61
2018-06-20T17:02:23.456Z,100561.75
2018-06-20T17:04:51.384Z,100559.91
2018-06-20T17:07:19.352Z,100549.55
2018-06-20T17:09:48.102Z,100555.03
2018-06-20T17:12:21.795Z,100549.34
2018-06-20T17:14:55.306Z,100550.88
2018-06-20T17:17:28.801Z,100545.70
2018-06-20T17:20:02.586Z,100541.93
2018-06-20T17:22:36.093Z,100544.59
2018-06-20T17:25:09.857Z,100537.39
2018-06-20T17:27:37.797Z,100538.80
2018-06-20T17:30:08.005Z,100538.89
2018-06-20T17:32:36.212Z,100538.59
2018-06-20T17:35:04.355Z,100539.64
2018-06-20T17:37:32.385Z,100530.86
2018-06-20T17:40:00.297Z,100537.70
2018-06-20T17:42:28.465Z,100538.59
2018-06-20T17:44:56.492Z,100530.80
2018-06-20T17:47:24.305Z,100535.55
2018-06-20T17:49:52.174Z,100538.88
2018-06-20T17:52:20.384Z,100531.83
2018-06-20T17:54:48.356Z,100527.02
2018-06-20T17:57:17.042Z,100518.23
2018-06-20T17:59:44.900Z,100527.30
2018-06-20T18:02:12.873Z,100525.29
2018-06-20T18:04:46.445Z,100524.33
2018-06-20T18:07:20.085Z,100517.91
2018-06-20T18:09:53.799Z,100518.06
2018-06-20T18:12:27.742Z,100518.44
2018-06-20T18:15:01.371Z,100513.20
2018-06-20T18:17:29.213Z,100512.17
2018-06-20T18:19:57.133Z,100511.36
2018-06-20T18:22:24.936Z,100520.60
2018-06-20T18:24:52.946Z,100512.67
2018-06-20T18:27:20.834Z,100509.37
2018-06-20T18:29:48.662Z,100503.78
2018-06-20T18:32:16.502Z,100513.60
2018-06-20T18:34:44.415Z,100512.09
2018-06-20T18:37:12.225Z,100507.47
2018-06-20T18:39:45.828Z,100512.56
2018-06-20T18:42:13.633Z,100512.02
2018-06-20T18:44:41.440Z,100511.57
2018-06-20T18:47:10.693Z,100509.98
2018-06-20T18:49:38.562Z,100506.47
2018-06-20T18:52:06.453Z,100501.50
2018-06-20T18:54:34.345Z,100510.67
2018-06-20T18:57:02.375Z,100500.39
2018-06-20T18:59:38.636Z,100501.61
2018-06-20T19:02:12.246Z,100502.23
2018-06-20T19:04:45.745Z,100502.09
2018-06-20T19:07:19.542Z,100507.32
2018-06-20T19:09:47.420Z,100498.53
2018-06-20T19:12:15.249Z,100506.32
2018-06-20T19:14:43.125Z,100507.38
2018-06-20T19:17:11.073Z,100509.20
2018-06-20T19:19:42.614Z,100508.90
2018-06-20T19:22:10.534Z,100503.27
2018-06-20T19:24:38.466Z,100507.65
2018-06-20T19:27:06.409Z,100506.09
2018-06-20T19:29:34.268Z,100504.94
2018-06-20T19:32:02.191Z,100509.14
2018-06-20T19:34:30.630Z,100513.48
2018-06-20T19:36:58.613Z,100514.30
2018-06-20T19:39:32.285Z,100510.80
2018-06-20T19:42:00.173Z,100515.59
2018-06-20T19:44:32.837Z,100518.52
2018-06-20T19:47:03.019Z,100520.34
2018-06-20T19:49:30.868Z,100525.72
2018-06-20T19:51:58.810Z,100529.17
2018-06-20T19:54:26.717Z,100527.29
2018-06-20T19:56:54.653Z,100526.73
2018-06-20T19:59:22.825Z,100533.24
2018-06-20T20:01:51.385Z,100535.70
2018-06-20T20:04:19.245Z,100538.16
2018-06-20T20:06:47.096Z,100538.03
2018-06-20T20:09:15.018Z,100537.76
2018-06-20T20:11:42.904Z,100536.55
2018-06-20T20:14:10.790Z,100544.34
2018-06-20T20:16:38.646Z,100539.66
2018-06-20T20:19:06.685Z,100531.11
2018-06-20T20:21:35.329Z,100533.09
2018-06-20T20:24:03.718Z,100545.44
2018-06-20T20:26:31.818Z,100539.70
2018-06-20T20:29:00.457Z,100539.19
2018-06-20T20:31:34.196Z,100540.22
2018-06-20T20:34:02.038Z,100541.86
2018-06-20T20:36:29.847Z,100535.39
2018-06-20T20:38:57.878Z,100538.64
2018-06-20T20:41:32.765Z,100533.68
2018-06-20T20:44:08.790Z,100539.80
2018-06-20T20:46:42.015Z,100534.51
2018-06-20T20:49:14.605Z,100537.09
2018-06-20T20:51:52.301Z,100535.72
2018-06-20T20:54:20.237Z,100540.98
2018-06-20T20:56:51.032Z,100538.87
2018-06-20T20:59:18.919Z,100536.14
2018-06-20T21:01:46.833Z,100540.03
2018-06-20T21:04:14.710Z,100537.00
2018-06-20T21:06:42.741Z,100535.08
2018-06-20T21:09:11.021Z,100538.28
2018-06-20T21:11:38.923Z,100530.75
2018-06-20T21:14:07.784Z,100531.22
2018-06-20T21:16:35.638Z,100532.53
2018-06-20T21:19:03.619Z,100529.31
2018-06-20T21:21:31.505Z,100535.33
2018-06-20T21:23:59.432Z,100524.73
2018-06-20T21:26:33.432Z,100533.69
2018-06-20T21:29:01.562Z,100522.00
2018-06-20T21:31:29.457Z,100517.62
2018-06-20T21:33:57.318Z,100515.68
2018-06-20T21:36:25.149Z,100520.89
2018-06-20T21:38:52.947Z,100518.06
2018-06-20T21:41:20.819Z,100518.53
2018-06-20T21:43:48.752Z,100522.06
2018-06-20T21:46:16.612Z,100522.17
2018-06-20T21:48:44.542Z,100518.70
2018-06-20T21:51:12.485Z,100508.44
2018-06-20T21:53:40.358Z,100514.95
2018-06-20T21:56:08.250Z,100513.64
2018-06-20T21:58:36.053Z,100508.63
2018-06-20T22:01:03.958Z,100508.06
2018-06-20T22:03:31.815Z,100514.27
2018-06-20T22:05:59.682Z,100510.83
2018-06-20T22:08:27.541Z,100509.59
2018-06-20T22:10:55.428Z,100505.48
2018-06-20T22:13:23.358Z,100501.98
2018-06-20T22:15:51.361Z,100500.93
2018-06-20T22:18:19.251Z,100499.13
2018-06-20T22:20:47.137Z,100495.77
2018-06-20T22:23:15.006Z,100497.73
2018-06-20T22:25:42.899Z,100490.44
2018-06-20T22:28:10.815Z,100497.36
2018-06-20T22:30:38.676Z,100500.58
2018-06-20T22:33:06.505Z,100497.93
2018-06-20T22:35:34.485Z,100499.54
2018-06-20T22:38:02.488Z,100489.22
2018-06-20T22:40:30.635Z,100483.37
2018-06-20T22:42:58.612Z,100483.26
2018-06-20T22:45:26.573Z,100486.66
2018-06-20T22:47:54.729Z,100475.09
2018-06-20T22:50:22.705Z,100479.17
2018-06-20T22:52:50.647Z,100481.13
2018-06-20T22:55:18.592Z,100473.17
2018-06-20T22:57:46.571Z,100477.06
2018-06-20T23:00:14.557Z,100481.37
2018-06-20T23:02:42.433Z,100480.19
2018-06-20T23:05:10.351Z,100481.16
2018-06-20T23:07:38.349Z,100474.48
2018-06-20T23:10:06.360Z,100476.19
2018-06-20T23:12:34.297Z,100472.06
2018-06-20T23:15:02.308Z,100478.32
2018-06-20T23:17:30.258Z,100470.40
2018-06-20T23:19:58.213Z,100472.33
2018-06-20T23:22:26.158Z,100465.15
2018-06-20T23:24:54.047Z,100463.66
2018-06-20T23:27:21.922Z,100463.09
2018-06-20T23:29:49.810Z,100466.38
2018-06-20T23:32:17.750Z,100464.58
2018-06-20T23:34:45.674Z,100467.00
2018-06-20T23:37:13.709Z,100466.77
2018-06-20T23:39:42.730Z,100469.70
2018-06-20T23:42:10.917Z,100463.56
2018-06-20T23:44:38.881Z,100458.25
2018-06-20T23:47:06.893Z,100462.61
2018-06-20T23:49:34.813Z,100465.59
2018-06-20T23:52:02.683Z,100462.07
2018-06-20T23:54:30.705Z,100460.94
2018-06-20T23:56:58.708Z,100456.31
2018-06-20T23:59:26.676Z,100459.91
